createdAt,value
2019-02-28T00:00:42.679Z,7.29
2019-02-28T00:01:47.380Z,7.29
2019-02-28T00:02:41.019Z,7.28
2019-02-28T00:03:40.753Z,7.27
2019-02-28T00:04:41.213Z,7.28
2019-02-28T00:05:41.312Z,7.29
2019-02-28T00:06:45.365Z,7.25
2019-02-28T00:07:40.809Z,7.23
2019-02-28T00:08:41.368Z,7.24
2019-02-28T00:09:41.021Z,7.23
2019-02-28T00:10:42.632Z,7.21
2019-02-28T00:11:40.913Z,7.19
2019-02-28T00:12:41.245Z,7.18
2019-02-28T00:13:40.941Z,7.18
2019-02-28T00:14:40.895Z,7.17
2019-02-28T00:15:41.174Z,7.17
2019-02-28T00:16:40.906Z,7.17
2019-02-28T00:17:43.970Z,7.18
2019-02-28T00:18:41.001Z,7.17
2019-02-28T00:19:41.622Z,7.21
2019-02-28T00:20:40.788Z,7.19
2019-02-28T00:21:41.581Z,7.19
2019-02-28T00:22:40.752Z,7.17
2019-02-28T00:23:41.216Z,7.19
2019-02-28T00:24:41.041Z,7.17
2019-02-28T00:25:42.628Z,7.15
2019-02-28T00:26:48.114Z,7.13
2019-02-28T00:27:41.161Z,7.09
2019-02-28T00:28:41.261Z,7.09
2019-02-28T00:29:40.872Z,7.08
2019-02-28T00:30:41.852Z,7.05
2019-02-28T00:31:40.857Z,7.04
2019-02-28T00:32:41.219Z,7.03
2019-02-28T00:33:40.814Z,7.03
2019-02-28T00:34:40.759Z,7
2019-02-28T00:35:45.579Z,7
2019-02-28T00:36:42.594Z,6.99
2019-02-28T00:37:40.708Z,6.97
2019-02-28T00:38:40.766Z,6.96
2019-02-28T00:39:40.798Z,6.94
2019-02-28T00:40:41.377Z,6.9
2019-02-28T00:41:44.922Z,6.88
2019-02-28T00:42:41.047Z,6.85
2019-02-28T00:43:40.727Z,6.87
2019-02-28T00:44:40.732Z,6.79
2019-02-28T00:45:41.151Z,6.8
2019-02-28T00:46:45.619Z,6.8
2019-02-28T00:47:40.899Z,6.68
2019-02-28T00:48:40.738Z,6.68
2019-02-28T00:49:40.792Z,6.68
2019-02-28T00:50:40.758Z,6.68
2019-02-28T00:51:40.859Z,6.68
2019-02-28T00:52:42.599Z,6.7
2019-02-28T00:53:40.886Z,6.73
2019-02-28T00:54:44.735Z,6.73
2019-02-28T00:55:40.759Z,6.7
2019-02-28T00:56:41.302Z,6.7
2019-02-28T00:57:42.286Z,6.66
2019-02-28T00:58:41.248Z,6.64
2019-02-28T00:59:40.754Z,6.68
2019-02-28T01:00:41.174Z,6.69
2019-02-28T01:01:47.178Z,6.74
2019-02-28T01:02:41.164Z,6.76
2019-02-28T01:03:40.817Z,6.74
2019-02-28T01:04:40.875Z,6.76
2019-02-28T01:05:40.839Z,6.75
2019-02-28T01:06:42.784Z,6.76
2019-02-28T01:07:40.759Z,6.76
2019-02-28T01:08:40.668Z,6.79
2019-02-28T01:09:40.694Z,6.81
2019-02-28T01:10:40.968Z,6.83
2019-02-28T01:11:40.510Z,6.86
2019-02-28T01:12:40.754Z,6.91
2019-02-28T01:13:40.938Z,6.94
2019-02-28T01:14:41.042Z,6.98
2019-02-28T01:15:46.050Z,7.01
2019-02-28T01:16:41.749Z,6.98
2019-02-28T01:17:40.778Z,7.03
2019-02-28T01:18:42.537Z,7.02
2019-02-28T01:19:42.572Z,7.05
2019-02-28T01:20:40.758Z,7.04
2019-02-28T01:21:41.455Z,7.04
2019-02-28T01:22:41.212Z,7.04
2019-02-28T01:23:40.676Z,7.07
2019-02-28T01:24:41.481Z,7.08
2019-02-28T01:25:41.188Z,7.07
2019-02-28T01:26:47.644Z,7.08
2019-02-28T01:27:40.921Z,7.06
2019-02-28T01:28:41.623Z,7.08
2019-02-28T01:29:42.560Z,7.08
2019-02-28T01:30:41.442Z,7.06
2019-02-28T01:31:43.652Z,7.09
2019-02-28T01:32:40.662Z,7.08
2019-02-28T01:33:40.644Z,7.08
2019-02-28T01:34:40.708Z,7.08
2019-02-28T01:35:41.775Z,7.05
2019-02-28T01:36:40.777Z,7.07
2019-02-28T01:37:41.092Z,7.06
2019-02-28T01:38:42.498Z,7.04
2019-02-28T01:39:40.816Z,7.02
2019-02-28T01:40:41.594Z,7.02
2019-02-28T01:41:46.111Z,7.02
2019-02-28T01:42:40.813Z,7.02
2019-02-28T01:43:40.879Z,6.96
2019-02-28T01:44:40.780Z,6.97
2019-02-28T01:45:44.598Z,6.97
2019-02-28T01:46:40.942Z,6.98
2019-02-28T01:47:40.694Z,6.99
2019-02-28T01:48:42.490Z,6.98
2019-02-28T01:49:41.012Z,6.98
2019-02-28T01:50:40.992Z,6.97
2019-02-28T01:51:41.258Z,6.98
2019-02-28T01:52:46.408Z,6.97
2019-02-28T01:53:42.347Z,6.93
2019-02-28T01:54:40.662Z,6.96
2019-02-28T01:55:41.012Z,6.93
2019-02-28T01:56:40.751Z,6.95
2019-02-28T01:57:44.641Z,6.92
2019-02-28T01:58:40.713Z,6.91
2019-02-28T01:59:41.188Z,6.91
2019-02-28T02:00:40.768Z,6.9
2019-02-28T02:01:41.916Z,6.9
2019-02-28T02:02:40.756Z,6.89
2019-02-28T02:03:42.041Z,6.86
2019-02-28T02:04:46.866Z,6.86
2019-02-28T02:05:40.859Z,6.85
2019-02-28T02:06:41.275Z,6.85
2019-02-28T02:07:40.727Z,6.84
2019-02-28T02:08:40.881Z,6.83
2019-02-28T02:09:47.180Z,6.82
2019-02-28T02:10:40.587Z,6.82
2019-02-28T02:11:40.726Z,6.79
2019-02-28T02:12:40.775Z,6.78
2019-02-28T02:13:41.244Z,6.75
2019-02-28T02:14:46.158Z,6.75
2019-02-28T02:15:40.699Z,6.74
2019-02-28T02:16:40.596Z,6.77
2019-02-28T02:17:42.662Z,6.74
2019-02-28T02:18:44.683Z,6.77
2019-02-28T02:19:40.607Z,6.78
2019-02-28T02:20:40.876Z,6.76
2019-02-28T02:21:40.778Z,6.74
2019-02-28T02:22:45.933Z,6.77
2019-02-28T02:23:40.586Z,6.77
2019-02-28T02:24:40.564Z,6.75
2019-02-28T02:25:40.994Z,6.75
2019-02-28T02:26:46.128Z,6.77
2019-02-28T02:27:41.585Z,6.73
2019-02-28T02:28:40.661Z,6.73
2019-02-28T02:29:40.656Z,6.73
2019-02-28T02:30:40.833Z,6.71
2019-02-28T02:31:44.098Z,6.71
2019-02-28T02:32:40.845Z,6.7
2019-02-28T02:33:40.803Z,6.67
2019-02-28T02:34:40.909Z,6.69
2019-02-28T02:35:43.857Z,6.65
2019-02-28T02:36:41.201Z,6.63
2019-02-28T02:37:40.686Z,6.59
2019-02-28T02:38:42.111Z,6.58
2019-02-28T02:39:42.526Z,6.56
2019-02-28T02:40:40.640Z,6.52
2019-02-28T02:41:40.908Z,6.5
2019-02-28T02:42:50.327Z,6.5
2019-02-28T02:43:41.169Z,6.45
2019-02-28T02:44:40.694Z,6.45
2019-02-28T02:45:44.213Z,6.39
2019-02-28T02:46:41.258Z,6.39
2019-02-28T02:47:40.660Z,6.41
2019-02-28T02:48:43.642Z,6.38
2019-02-28T02:49:41.259Z,6.4
2019-02-28T02:50:42.462Z,6.36
2019-02-28T02:51:50.934Z,6.35
2019-02-28T02:52:40.574Z,6.33
2019-02-28T02:53:43.725Z,6.35
2019-02-28T02:54:42.404Z,6.33
2019-02-28T02:55:41.203Z,6.34
2019-02-28T02:56:42.568Z,6.35
2019-02-28T02:57:40.819Z,6.35
2019-02-28T02:58:40.821Z,6.32
2019-02-28T02:59:40.697Z,6.34
2019-02-28T03:00:40.972Z,6.36
2019-02-28T03:01:40.589Z,6.35
2019-02-28T03:02:40.728Z,6.34
2019-02-28T03:03:44.935Z,6.35
2019-02-28T03:04:41.917Z,6.35
2019-02-28T03:05:40.694Z,6.34
2019-02-28T03:06:40.554Z,6.34
2019-02-28T03:07:40.878Z,6.35
2019-02-28T03:08:42.446Z,6.34
2019-02-28T03:09:45.069Z,6.34
2019-02-28T03:10:40.608Z,6.32
2019-02-28T03:11:40.729Z,6.33
2019-02-28T03:12:41.572Z,6.32
2019-02-28T03:13:44.542Z,6.31
2019-02-28T03:14:40.851Z,6.32
2019-02-28T03:15:40.747Z,6.29
2019-02-28T03:16:40.940Z,6.31
2019-02-28T03:17:49.560Z,6.32
2019-02-28T03:18:41.590Z,6.28
2019-02-28T03:19:41.282Z,6.27
2019-02-28T03:20:42.825Z,6.24
2019-02-28T03:21:42.375Z,6.24
2019-02-28T03:22:40.546Z,6.21
2019-02-28T03:23:41.012Z,6.17
2019-02-28T03:24:40.808Z,6.15
2019-02-28T03:25:40.813Z,6.11
2019-02-28T03:26:43.743Z,6.09
2019-02-28T03:27:41.497Z,6.09
2019-02-28T03:28:40.675Z,6.05
2019-02-28T03:29:45.201Z,6.05
2019-02-28T03:30:40.715Z,6.01
2019-02-28T03:31:40.554Z,5.94
2019-02-28T03:32:43.623Z,5.9
2019-02-28T03:33:41.055Z,5.87
2019-02-28T03:34:59.558Z,5.85
2019-02-28T03:35:44.656Z,5.86
2019-02-28T03:36:40.914Z,5.81
2019-02-28T03:37:40.631Z,5.8
2019-02-28T03:38:50.424Z,5.77
2019-02-28T03:39:40.812Z,5.76
2019-02-28T03:40:41.650Z,5.72
2019-02-28T03:41:40.540Z,5.71
2019-02-28T03:42:40.634Z,5.68
2019-02-28T03:43:44.452Z,5.66
2019-02-28T03:44:41.437Z,5.68
2019-02-28T03:45:40.658Z,5.66
2019-02-28T03:46:48.121Z,5.65
2019-02-28T03:47:40.555Z,5.64
2019-02-28T03:48:42.350Z,5.63
2019-02-28T03:49:50.395Z,5.62
2019-02-28T03:50:40.630Z,5.59
2019-02-28T03:51:40.621Z,5.57
2019-02-28T03:52:45.525Z,5.56
2019-02-28T03:53:40.637Z,5.54
2019-02-28T03:54:41.514Z,5.53
2019-02-28T03:55:41.936Z,5.52
2019-02-28T03:56:41.035Z,5.51
2019-02-28T03:57:42.416Z,5.5
2019-02-28T03:58:43.509Z,5.47
2019-02-28T03:59:40.946Z,5.47
2019-02-28T04:00:40.896Z,5.44
2019-02-28T04:01:46.764Z,5.43
2019-02-28T04:02:40.561Z,5.39
2019-02-28T04:03:41.083Z,5.38
2019-02-28T04:04:50.745Z,5.37
2019-02-28T04:05:40.777Z,5.35
2019-02-28T04:06:41.402Z,5.35
2019-02-28T04:07:40.572Z,5.24
2019-02-28T04:08:40.517Z,5.19
2019-02-28T04:09:45.700Z,5.2
2019-02-28T04:10:40.529Z,5.1
2019-02-28T04:11:41.165Z,5.08
2019-02-28T04:12:47.432Z,5.07
2019-02-28T04:13:40.543Z,5.07
2019-02-28T04:14:40.752Z,5.07
2019-02-28T04:16:10.285Z,5.05
2019-02-28T04:16:40.555Z,5.03
2019-02-28T04:17:40.680Z,5.02
2019-02-28T04:18:47.055Z,5.05
2019-02-28T04:19:41.203Z,5.05
2019-02-28T04:20:41.072Z,5.05
2019-02-28T04:21:48.188Z,5.06
2019-02-28T04:22:41.217Z,5.04
2019-02-28T04:23:40.471Z,4.97
2019-02-28T04:24:40.716Z,4.95
2019-02-28T04:25:40.725Z,4.94
2019-02-28T04:26:40.624Z,4.91
2019-02-28T04:27:42.452Z,4.9
2019-02-28T04:28:40.770Z,4.9
2019-02-28T04:29:40.546Z,4.89
2019-02-28T04:30:44.473Z,4.88
2019-02-28T04:31:40.461Z,4.86
2019-02-28T04:32:40.743Z,4.83
2019-02-28T04:33:40.652Z,4.82
2019-02-28T04:34:40.462Z,4.81
2019-02-28T04:35:40.469Z,4.78
2019-02-28T04:36:41.363Z,4.77
2019-02-28T04:37:47.636Z,4.73
2019-02-28T04:38:40.397Z,4.73
2019-02-28T04:39:41.306Z,4.71
2019-02-28T04:40:40.693Z,4.71
2019-02-28T04:41:40.470Z,4.7
2019-02-28T04:42:40.896Z,4.7
2019-02-28T04:43:45.320Z,4.69
2019-02-28T04:44:40.922Z,4.69
2019-02-28T04:45:40.505Z,4.7
2019-02-28T04:46:40.935Z,4.7
2019-02-28T04:47:42.144Z,4.69
2019-02-28T04:48:40.613Z,4.67
2019-02-28T04:49:40.779Z,4.63
2019-02-28T04:50:41.149Z,4.62
2019-02-28T04:51:41.430Z,4.61
2019-02-28T04:52:48.517Z,4.6
2019-02-28T04:53:40.371Z,4.58
2019-02-28T04:54:40.570Z,4.57
2019-02-28T04:55:42.233Z,4.57
2019-02-28T04:56:46.833Z,4.58
2019-02-28T04:57:40.362Z,4.57
2019-02-28T04:58:40.181Z,4.58
2019-02-28T04:59:40.585Z,4.58
2019-02-28T05:00:40.435Z,4.57
2019-02-28T05:01:40.474Z,4.55
2019-02-28T05:02:40.470Z,4.55
2019-02-28T05:03:41.321Z,4.53
2019-02-28T05:04:41.669Z,4.52
2019-02-28T05:05:40.624Z,4.51
2019-02-28T05:06:41.529Z,4.48
2019-02-28T05:07:40.974Z,4.51
2019-02-28T05:08:40.517Z,4.5
2019-02-28T05:09:40.552Z,4.5
2019-02-28T05:10:41.197Z,4.5
2019-02-28T05:11:40.490Z,4.49
2019-02-28T05:12:41.559Z,4.49
2019-02-28T05:13:41.474Z,4.5
2019-02-28T05:14:40.365Z,4.5
2019-02-28T05:15:41.384Z,4.5
2019-02-28T05:16:48.495Z,4.5
2019-02-28T05:17:40.432Z,4.49
2019-02-28T05:18:40.734Z,4.47
2019-02-28T05:19:40.644Z,4.47
2019-02-28T05:20:46.283Z,4.43
2019-02-28T05:21:40.374Z,4.39
2019-02-28T05:22:40.330Z,4.37
2019-02-28T05:23:42.180Z,4.33
2019-02-28T05:24:43.979Z,4.33
2019-02-28T05:25:41.197Z,4.29
2019-02-28T05:26:40.928Z,4.33
2019-02-28T05:27:41.928Z,4.31
2019-02-28T05:28:41.814Z,4.32
2019-02-28T05:29:45.142Z,4.31
2019-02-28T05:30:41.800Z,4.28
2019-02-28T05:31:40.400Z,4.27
2019-02-28T05:32:40.750Z,4.24
2019-02-28T05:33:43.137Z,4.21
2019-02-28T05:34:40.646Z,4.19
2019-02-28T05:35:40.642Z,4.19
2019-02-28T05:36:40.262Z,4.19
2019-02-28T05:37:48.664Z,4.2
2019-02-28T05:38:40.648Z,4.21
2019-02-28T05:39:40.444Z,4.22
2019-02-28T05:40:41.732Z,4.2
2019-02-28T05:41:40.446Z,4.23
2019-02-28T05:42:40.798Z,4.25
2019-02-28T05:43:40.453Z,4.24
2019-02-28T05:44:41.284Z,4.22
2019-02-28T05:45:40.502Z,4.24
2019-02-28T05:46:40.499Z,4.22
2019-02-28T05:47:47.697Z,4.25
2019-02-28T05:48:40.524Z,4.23
2019-02-28T05:49:42.299Z,4.19
2019-02-28T05:50:41.353Z,4.11
2019-02-28T05:51:40.405Z,4.16
2019-02-28T05:52:41.175Z,4.17
2019-02-28T05:53:42.943Z,4.2
2019-02-28T05:54:40.729Z,4.19
2019-02-28T05:55:40.348Z,4.21
2019-02-28T05:56:41.169Z,4.18
2019-02-28T05:57:45.210Z,4.1
2019-02-28T05:58:40.456Z,4.14
2019-02-28T05:59:40.709Z,4.18
2019-02-28T06:00:40.393Z,4.18
2019-02-28T06:01:47.945Z,4.19
2019-02-28T06:02:40.326Z,4.19
2019-02-28T06:03:40.627Z,4.17
2019-02-28T06:04:40.537Z,4.18
2019-02-28T06:05:40.258Z,4.19
2019-02-28T06:06:40.343Z,4.19
2019-02-28T06:07:40.546Z,4.2
2019-02-28T06:08:40.671Z,4.2
2019-02-28T06:09:40.448Z,4.19
2019-02-28T06:10:40.460Z,4.2
2019-02-28T06:11:40.901Z,4.2
2019-02-28T06:12:45.321Z,4.18
2019-02-28T06:13:40.357Z,4.18
2019-02-28T06:14:41.122Z,4.19
2019-02-28T06:15:40.359Z,4.19
2019-02-28T06:16:40.223Z,4.18
2019-02-28T06:17:40.417Z,4.17
2019-02-28T06:18:40.352Z,4.18
2019-02-28T06:19:44.542Z,4.18
2019-02-28T06:20:40.242Z,4.19
2019-02-28T06:21:40.231Z,4.19
2019-02-28T06:22:40.394Z,4.22
2019-02-28T06:23:41.907Z,4.23
2019-02-28T06:24:40.245Z,4.24
2019-02-28T06:25:40.256Z,4.27
2019-02-28T06:26:40.875Z,4.28
2019-02-28T06:27:50.884Z,4.29
2019-02-28T06:28:40.350Z,4.3
2019-02-28T06:29:40.746Z,4.32
2019-02-28T06:30:42.983Z,4.3
2019-02-28T06:31:40.274Z,4.33
2019-02-28T06:32:40.759Z,4.34
2019-02-28T06:33:40.515Z,4.34
2019-02-28T06:34:43.322Z,4.38
2019-02-28T06:35:40.337Z,4.36
2019-02-28T06:36:42.075Z,4.4
2019-02-28T06:37:40.621Z,4.41
2019-02-28T06:38:40.337Z,4.42
2019-02-28T06:39:40.452Z,4.43
2019-02-28T06:40:40.328Z,4.47
2019-02-28T06:41:41.116Z,4.51
2019-02-28T06:42:40.326Z,4.53
2019-02-28T06:43:40.358Z,4.54
2019-02-28T06:44:40.295Z,4.58
2019-02-28T06:45:40.182Z,4.6
2019-02-28T06:46:41.064Z,4.6
2019-02-28T06:47:40.393Z,4.64
2019-02-28T06:48:40.307Z,4.66
2019-02-28T06:49:42.366Z,4.68
2019-02-28T06:50:40.405Z,4.7
2019-02-28T06:51:42.048Z,4.73
2019-02-28T06:52:40.526Z,4.74
2019-02-28T06:53:40.195Z,4.76
2019-02-28T06:54:41.403Z,4.78
2019-02-28T06:55:40.327Z,4.81
2019-02-28T06:56:40.855Z,4.84
2019-02-28T06:57:40.509Z,4.84
2019-02-28T06:58:40.217Z,4.88
2019-02-28T06:59:40.004Z,4.89
2019-02-28T07:00:40.498Z,4.91
2019-02-28T07:01:40.198Z,4.96
2019-02-28T07:02:40.169Z,4.97
2019-02-28T07:03:42.817Z,4.99
2019-02-28T07:04:41.109Z,5.02
2019-02-28T07:05:40.335Z,5.01
2019-02-28T07:06:40.180Z,5.03
2019-02-28T07:07:40.337Z,5.04
2019-02-28T07:08:40.163Z,5.05
2019-02-28T07:09:40.220Z,5.08
2019-02-28T07:10:49.383Z,5.09
2019-02-28T07:11:40.656Z,5.13
2019-02-28T07:12:40.363Z,5.13
2019-02-28T07:13:41.414Z,5.14
2019-02-28T07:14:40.203Z,5.15
2019-02-28T07:15:40.287Z,5.19
2019-02-28T07:16:41.138Z,5.2
2019-02-28T07:17:47.754Z,5.22
2019-02-28T07:18:40.505Z,5.24
2019-02-28T07:19:41.047Z,5.26
2019-02-28T07:20:40.637Z,5.26
2019-02-28T07:21:44.669Z,5.3
2019-02-28T07:22:42.121Z,5.31
2019-02-28T07:23:40.193Z,5.36
2019-02-28T07:24:42.040Z,5.38
2019-02-28T07:25:40.545Z,5.39
2019-02-28T07:26:40.673Z,5.4
2019-02-28T07:27:40.165Z,5.4
2019-02-28T07:28:40.419Z,5.4
2019-02-28T07:29:43.788Z,5.43
2019-02-28T07:30:40.185Z,5.44
2019-02-28T07:31:40.344Z,5.42
2019-02-28T07:32:40.623Z,5.46
2019-02-28T07:33:45.495Z,5.45
2019-02-28T07:34:40.236Z,5.45
2019-02-28T07:35:40.346Z,5.45
2019-02-28T07:36:46.130Z,5.45
2019-02-28T07:37:40.309Z,5.48
2019-02-28T07:38:40.303Z,5.48
2019-02-28T07:39:41.395Z,5.51
2019-02-28T07:40:40.490Z,5.52
2019-02-28T07:41:41.690Z,5.54
2019-02-28T07:42:40.323Z,5.58
2019-02-28T07:43:46.894Z,5.6
2019-02-28T07:44:40.497Z,5.64
2019-02-28T07:45:40.254Z,5.64
2019-02-28T07:46:43.603Z,5.68
2019-02-28T07:47:41.969Z,5.71
2019-02-28T07:48:40.251Z,5.77
2019-02-28T07:49:40.360Z,5.78
2019-02-28T07:50:40.168Z,5.84
2019-02-28T07:51:41.972Z,5.9
2019-02-28T07:52:40.182Z,5.93
2019-02-28T07:53:42.401Z,5.92
2019-02-28T07:54:40.439Z,5.99
2019-02-28T07:55:40.299Z,6.04
2019-02-28T07:56:44.593Z,6.08
2019-02-28T07:57:40.966Z,6.18
2019-02-28T07:58:40.407Z,6.24
2019-02-28T07:59:43.055Z,6.34
2019-02-28T08:00:40.575Z,6.37
2019-02-28T08:01:41.277Z,6.42
2019-02-28T08:02:40.258Z,6.5
2019-02-28T08:03:45.152Z,6.58
2019-02-28T08:04:40.805Z,6.63
2019-02-28T08:05:40.385Z,6.69
2019-02-28T08:06:40.905Z,6.81
2019-02-28T08:07:40.299Z,6.82
2019-02-28T08:08:40.198Z,6.87
2019-02-28T08:09:41.787Z,6.96
2019-02-28T08:10:40.162Z,7.06
2019-02-28T08:11:40.201Z,7.14
2019-02-28T08:12:40.234Z,7.23
2019-02-28T08:13:40.374Z,7.28
2019-02-28T08:14:48.234Z,7.35
2019-02-28T08:15:40.911Z,7.41
2019-02-28T08:16:40.221Z,7.44
2019-02-28T08:17:44.902Z,7.52
2019-02-28T08:18:40.429Z,7.6
2019-02-28T08:19:40.053Z,7.62
2019-02-28T08:20:40.193Z,7.63
2019-02-28T08:21:50.708Z,7.66
2019-02-28T08:22:40.172Z,7.73
2019-02-28T08:23:40.375Z,7.73
2019-02-28T08:24:40.139Z,7.79
2019-02-28T08:25:43.769Z,7.84
2019-02-28T08:26:43.999Z,7.93
2019-02-28T08:27:40.127Z,7.98
2019-02-28T08:28:40.154Z,7.98
2019-02-28T08:29:46.185Z,8.01
2019-02-28T08:30:40.124Z,8.05
2019-02-28T08:31:40.562Z,8.07
2019-02-28T08:32:47.489Z,8.13
2019-02-28T08:33:40.088Z,8.2
2019-02-28T08:34:40.268Z,8.23
2019-02-28T08:35:40.070Z,8.31
2019-02-28T08:36:47.744Z,8.32
2019-02-28T08:37:40.346Z,8.43
2019-02-28T08:38:40.234Z,8.44
2019-02-28T08:39:42.407Z,8.51
2019-02-28T08:40:41.269Z,8.57
2019-02-28T08:41:39.874Z,8.6
2019-02-28T08:42:40.087Z,8.66
2019-02-28T08:43:39.867Z,8.7
2019-02-28T08:44:39.864Z,8.76
2019-02-28T08:45:40.111Z,8.89
2019-02-28T08:46:39.865Z,8.95
2019-02-28T08:47:39.871Z,9.06
2019-02-28T08:48:39.865Z,9.15
2019-02-28T08:49:45.742Z,9.14
2019-02-28T08:50:39.875Z,9.15
2019-02-28T08:51:39.850Z,9.2
2019-02-28T08:52:42.517Z,9.37
2019-02-28T08:53:39.882Z,9.39
2019-02-28T08:54:39.836Z,9.42
2019-02-28T08:55:44.719Z,9.5
2019-02-28T08:56:39.827Z,9.6
2019-02-28T08:57:39.842Z,9.56
2019-02-28T08:58:39.850Z,9.6
2019-02-28T08:59:39.924Z,9.66
2019-02-28T09:00:40.018Z,9.74
2019-02-28T09:01:44.506Z,9.77
2019-02-28T09:02:39.977Z,9.85
2019-02-28T09:03:40.855Z,9.89
2019-02-28T09:04:51.207Z,9.96
2019-02-28T09:05:39.865Z,10.07
2019-02-28T09:06:41.985Z,10.15
2019-02-28T09:07:39.860Z,10.18
2019-02-28T09:08:39.815Z,10.27
2019-02-28T09:09:39.875Z,10.27
2019-02-28T09:10:39.851Z,10.33
2019-02-28T09:11:39.892Z,10.42
2019-02-28T09:12:39.822Z,10.44
2019-02-28T09:13:43.892Z,10.46
2019-02-28T09:14:39.826Z,10.54
2019-02-28T09:15:39.809Z,10.59
2019-02-28T09:16:40.543Z,10.77
2019-02-28T09:17:39.826Z,10.75
2019-02-28T09:18:39.832Z,10.77
2019-02-28T09:19:39.793Z,10.84
2019-02-28T09:20:45.455Z,10.98
2019-02-28T09:21:41.511Z,10.99
2019-02-28T09:22:39.974Z,11.13
2019-02-28T09:23:40.033Z,11.14
2019-02-28T09:24:39.972Z,11.22
2019-02-28T09:25:40.061Z,11.22
2019-02-28T09:26:39.966Z,11.33
2019-02-28T09:27:40.002Z,11.45
2019-02-28T09:28:39.948Z,11.45
2019-02-28T09:29:39.944Z,11.45
2019-02-28T09:30:39.953Z,11.53
2019-02-28T09:31:40.072Z,11.61
2019-02-28T09:32:39.945Z,11.66
2019-02-28T09:33:39.939Z,11.68
2019-02-28T09:34:41.548Z,11.67
2019-02-28T09:35:46.718Z,11.74
2019-02-28T09:36:39.954Z,11.82
2019-02-28T09:37:39.959Z,11.83
2019-02-28T09:38:46.188Z,11.96
2019-02-28T09:39:40.258Z,11.97
2019-02-28T09:40:41.589Z,12.02
2019-02-28T09:41:41.526Z,12.03
2019-02-28T09:42:39.982Z,12.06
2019-02-28T09:43:39.951Z,12.17
2019-02-28T09:44:40.113Z,12.2
2019-02-28T09:45:56.540Z,12.27
2019-02-28T09:46:39.957Z,12.35
2019-02-28T09:47:39.920Z,12.33
2019-02-28T09:48:54.680Z,12.4
2019-02-28T09:49:40.009Z,12.43
2019-02-28T09:50:40.013Z,12.53
2019-02-28T09:51:39.960Z,12.51
2019-02-28T09:52:42.896Z,12.51
2019-02-28T09:53:52.121Z,12.49
2019-02-28T09:54:39.945Z,12.51
2019-02-28T09:55:40.145Z,12.51
2019-02-28T09:56:45.564Z,12.63
2019-02-28T09:57:39.901Z,12.62
2019-02-28T09:58:39.894Z,12.72
2019-02-28T09:59:40.435Z,12.79
2019-02-28T10:00:39.982Z,12.79
2019-02-28T10:01:39.916Z,12.8
2019-02-28T10:02:45.470Z,12.79
2019-02-28T10:03:39.928Z,12.79
2019-02-28T10:04:39.898Z,12.82
2019-02-28T10:05:43.605Z,12.88
2019-02-28T10:06:40.025Z,12.89
2019-02-28T10:07:39.953Z,12.9
2019-02-28T10:08:39.932Z,12.91
2019-02-28T10:09:49.439Z,12.91
2019-02-28T10:10:39.926Z,12.97
2019-02-28T10:11:40.853Z,13
2019-02-28T10:12:43.455Z,13.02
2019-02-28T10:13:39.890Z,13.08
2019-02-28T10:14:40.052Z,13.08
2019-02-28T10:15:42.675Z,13.12
2019-02-28T10:16:53.581Z,13.2
2019-02-28T10:17:39.952Z,13.25
2019-02-28T10:18:41.119Z,13.27
2019-02-28T10:19:53.186Z,13.29
2019-02-28T10:20:39.906Z,13.31
2019-02-28T10:21:39.911Z,13.36
2019-02-28T10:22:39.924Z,13.4
2019-02-28T10:23:39.911Z,13.35
2019-02-28T10:24:40.578Z,13.41
2019-02-28T10:25:43.977Z,13.42
2019-02-28T10:26:39.913Z,13.51
2019-02-28T10:27:40.065Z,13.53
2019-02-28T10:28:39.888Z,13.61
2019-02-28T10:29:42.981Z,13.61
2019-02-28T10:30:39.875Z,13.66
2019-02-28T10:31:39.886Z,13.73
2019-02-28T10:33:39.872Z,13.79
2019-02-28T10:34:39.894Z,13.91
2019-02-28T10:35:39.884Z,13.98
2019-02-28T10:36:39.870Z,14.01
2019-02-28T10:38:39.784Z,14.16
2019-02-28T10:39:44.024Z,14.26
2019-02-28T10:40:40.221Z,14.25
2019-02-28T10:41:39.851Z,14.31
2019-02-28T10:42:41.649Z,14.37
2019-02-28T10:43:39.907Z,14.4
2019-02-28T10:44:39.849Z,14.51
2019-02-28T10:45:43.060Z,14.56
2019-02-28T10:46:39.683Z,14.61
2019-02-28T10:47:39.835Z,14.67
2019-02-28T10:48:51.287Z,14.64
2019-02-28T10:49:39.993Z,14.74
2019-02-28T10:50:39.863Z,14.74
2019-02-28T10:51:39.865Z,14.8
2019-02-28T10:52:39.956Z,14.78
2019-02-28T10:53:40.495Z,14.8
2019-02-28T10:54:39.859Z,14.89
2019-02-28T10:55:39.838Z,14.95
2019-02-28T10:56:40.016Z,14.99
2019-02-28T10:57:41.848Z,15.05
2019-02-28T10:58:39.864Z,15.06
2019-02-28T10:59:39.968Z,15.1
2019-02-28T11:00:39.882Z,15.21
2019-02-28T11:01:42.885Z,15.15
2019-02-28T11:02:40.016Z,15.15
2019-02-28T11:03:39.826Z,15.14
2019-02-28T11:04:44.305Z,15.17
2019-02-28T11:05:40.013Z,15.17
2019-02-28T11:06:39.820Z,15.19
2019-02-28T11:07:39.855Z,15.14
2019-02-28T11:08:40.419Z,15.2
2019-02-28T11:09:40.027Z,15.21
2019-02-28T11:10:39.821Z,15.21
2019-02-28T11:11:46.384Z,15.2
2019-02-28T11:12:39.821Z,15.21
2019-02-28T11:13:39.865Z,15.21
2019-02-28T11:14:40.099Z,15.25
2019-02-28T11:15:39.868Z,15.24
2019-02-28T11:16:39.802Z,15.23
2019-02-28T11:17:39.790Z,15.31
2019-02-28T11:18:43.083Z,15.4
2019-02-28T11:19:39.820Z,15.49
2019-02-28T11:20:39.806Z,15.48
2019-02-28T11:21:40.021Z,15.45
2019-02-28T11:22:41.210Z,15.53
2019-02-28T11:23:39.810Z,15.53
2019-02-28T11:24:39.797Z,15.56
2019-02-28T11:25:39.817Z,15.62
2019-02-28T11:26:45.880Z,15.59
2019-02-28T11:27:40.139Z,15.59
2019-02-28T11:28:39.834Z,15.58
2019-02-28T11:29:39.813Z,15.56
2019-02-28T11:30:45.863Z,15.54
2019-02-28T11:31:39.799Z,15.52
2019-02-28T11:32:39.785Z,15.48
2019-02-28T11:33:40.733Z,15.44
2019-02-28T11:34:39.787Z,15.45
2019-02-28T11:35:39.785Z,15.45
2019-02-28T11:36:39.812Z,15.43
2019-02-28T11:37:46.367Z,15.43
2019-02-28T11:38:39.823Z,15.46
2019-02-28T11:39:39.777Z,15.44
2019-02-28T11:40:44.775Z,15.48
2019-02-28T11:41:44.583Z,15.52
2019-02-28T11:42:39.795Z,15.54
2019-02-28T11:43:40.340Z,15.53
2019-02-28T11:44:39.758Z,15.54
2019-02-28T11:45:39.845Z,15.56
2019-02-28T11:46:39.772Z,15.57
2019-02-28T11:47:43.631Z,15.6
2019-02-28T11:48:39.769Z,15.72
2019-02-28T11:49:39.765Z,15.74
2019-02-28T11:50:45.340Z,15.81
2019-02-28T11:51:39.804Z,15.87
2019-02-28T11:52:39.748Z,15.83
2019-02-28T11:54:39.759Z,15.84
2019-02-28T11:55:39.777Z,15.85
2019-02-28T11:56:39.778Z,15.84
2019-02-28T11:57:42.343Z,15.82
2019-02-28T11:58:39.803Z,15.82
2019-02-28T11:59:39.866Z,15.83
2019-02-28T12:00:39.850Z,15.83
2019-02-28T12:01:48.604Z,15.82
2019-02-28T12:03:01.286Z,15.88
2019-02-28T12:03:39.905Z,15.93
2019-02-28T12:04:41.435Z,15.93
2019-02-28T12:05:39.720Z,16.01
2019-02-28T12:06:39.808Z,16.02
2019-02-28T12:07:39.737Z,16.09
2019-02-28T12:08:45.930Z,16.13
2019-02-28T12:09:39.770Z,16.14
2019-02-28T12:10:39.806Z,16.22
2019-02-28T12:11:39.807Z,16.27
2019-02-28T12:12:45.605Z,16.36
2019-02-28T12:13:39.720Z,16.4
2019-02-28T12:14:39.738Z,16.44
2019-02-28T12:15:40.071Z,16.47
2019-02-28T12:16:46.045Z,16.54
2019-02-28T12:17:39.767Z,16.56
2019-02-28T12:18:41.264Z,16.59
2019-02-28T12:19:39.755Z,16.71
2019-02-28T12:20:39.746Z,16.71
2019-02-28T12:21:49.931Z,16.76
2019-02-28T12:22:39.707Z,16.75
2019-02-28T12:23:39.731Z,16.77
2019-02-28T12:24:39.728Z,16.77
2019-02-28T12:25:43.827Z,16.8
2019-02-28T12:26:39.772Z,16.82
2019-02-28T12:27:39.786Z,16.82
2019-02-28T12:28:39.765Z,16.82
2019-02-28T12:29:39.711Z,16.83
2019-02-28T12:30:40.605Z,16.9
2019-02-28T12:31:39.721Z,16.96
2019-02-28T12:32:44.395Z,16.98
2019-02-28T12:33:39.732Z,16.98
2019-02-28T12:34:39.724Z,17.06
2019-02-28T12:35:40.952Z,17.06
2019-02-28T12:36:39.735Z,17.12
2019-02-28T12:37:39.690Z,17.19
2019-02-28T12:38:39.740Z,17.24
2019-02-28T12:39:39.686Z,17.29
2019-02-28T12:40:49.757Z,17.31
2019-02-28T12:41:40.429Z,17.33
2019-02-28T12:42:39.714Z,17.31
2019-02-28T12:43:41.823Z,17.33
2019-02-28T12:44:39.745Z,17.4
2019-02-28T12:45:39.736Z,17.44
2019-02-28T12:46:39.693Z,17.47
2019-02-28T12:47:42.551Z,17.55
2019-02-28T12:48:39.686Z,17.58
2019-02-28T12:49:39.767Z,17.58
2019-02-28T12:50:39.739Z,17.6
2019-02-28T12:51:40.472Z,17.61
2019-02-28T12:52:39.681Z,17.66
2019-02-28T12:53:39.720Z,17.69
2019-02-28T12:54:39.718Z,17.68
2019-02-28T12:55:40.399Z,17.68
2019-02-28T12:56:39.702Z,17.68
2019-02-28T12:57:39.778Z,17.75
2019-02-28T12:58:41.973Z,17.82
2019-02-28T12:59:47.392Z,17.84
2019-02-28T13:00:39.724Z,17.87
2019-02-28T13:01:39.679Z,17.88
2019-02-28T13:02:44.684Z,17.88
2019-02-28T13:03:39.674Z,17.95
2019-02-28T13:04:39.674Z,17.96
2019-02-28T13:05:39.685Z,17.98
2019-02-28T13:06:39.650Z,17.98
2019-02-28T13:07:39.697Z,18.01
2019-02-28T13:08:42.755Z,18.04
2019-02-28T13:09:39.681Z,18.09
2019-02-28T13:10:39.665Z,18.1
2019-02-28T13:11:39.659Z,18.1
2019-02-28T13:12:39.680Z,18.14
2019-02-28T13:13:39.719Z,18.15
2019-02-28T13:14:42.126Z,18.19
2019-02-28T13:15:39.638Z,18.22
2019-02-28T13:16:39.673Z,18.29